sensor_id;sensor_type;location;lat;lon;timestamp;pressure;altitude;pressure_sealevel;temperature;humidity
10064;BME280;5071;52.360;13.134;2023-02-23T00:03:33;100882.94;;;4.32;89.61
10064;BME280;5071;52.360;13.134;2023-02-23T00:08:36;100879.41;;;4.30;89.98
10064;BME280;5071;52.360;13.134;2023-02-23T00:13:39;100871.44;;;4.25;90.28
10064;BME280;5071;52.360;13.134;2023-02-23T00:18:44;100871.41;;;4.22;90.48
10064;BME280;5071;52.360;13.134;2023-02-23T00:23:48;100862.66;;;4.23;90.84
10064;BME280;5071;52.360;13.134;2023-02-23T00:28:52;100860.94;;;4.27;90.25
10064;BME280;5071;52.360;13.134;2023-02-23T00:33:57;100869.72;;;4.27;90.63
10064;BME280;5071;52.360;13.134;2023-02-23T00:39:02;100876.75;;;4.28;90.56
10064;BME280;5071;52.360;13.134;2023-02-23T00:44:04;100871.47;;;4.27;90.89
10064;BME280;5071;52.360;13.134;2023-02-23T00:49:09;100873.16;;;4.23;91.32
10064;BME280;5071;52.360;13.134;2023-02-23T00:54:33;100869.63;;;4.21;91.09
10064;BME280;5071;52.360;13.134;2023-02-23T00:59:35;100862.56;;;4.17;91.53
10064;BME280;5071;52.360;13.134;2023-02-23T01:04:38;100864.22;;;4.12;91.49
10064;BME280;5071;52.360;13.134;2023-02-23T01:09:40;100860.75;;;4.15;91.55
10064;BME280;5071;52.360;13.134;2023-02-23T01:14:42;100858.06;;;4.10;92.18
10064;BME280;5071;52.360;13.134;2023-02-23T01:19:47;100855.44;;;4.10;92.33
10064;BME280;5071;52.360;13.134;2023-02-23T01:24:49;100860.59;;;4.04;92.29
10064;BME280;5071;52.360;13.134;2023-02-23T01:29:53;100846.59;;;4.05;92.52
10064;BME280;5071;52.360;13.134;2023-02-23T01:34:56;100844.72;;;3.96;93.09
10064;BME280;5071;52.360;13.134;2023-02-23T01:39:58;100846.44;;;3.96;93.34
10064;BME280;5071;52.360;13.134;2023-02-23T01:50:37;100839.34;;;3.90;93.72
10064;BME280;5071;52.360;13.134;2023-02-23T01:55:43;100835.00;;;3.91;94.02
10064;BME280;5071;52.360;13.134;2023-02-23T02:00:48;100827.94;;;3.88;94.12
10064;BME280;5071;52.360;13.134;2023-02-23T02:05:52;100822.69;;;3.88;94.35
10064;BME280;5071;52.360;13.134;2023-02-23T02:10:55;100826.19;;;3.87;94.24
10064;BME280;5071;52.360;13.134;2023-02-23T02:16:10;100822.66;;;3.85;94.68
10064;BME280;5071;52.360;13.134;2023-02-23T02:21:49;100811.22;;;3.83;94.75
10064;BME280;5071;52.360;13.134;2023-02-23T02:27:06;100802.44;;;3.79;94.93
10064;BME280;5071;52.360;13.134;2023-02-23T02:32:39;100805.97;;;3.83;95.18
10064;BME280;5071;52.360;13.134;2023-02-23T02:38:03;100803.22;;;3.75;95.28
10064;BME280;5071;52.360;13.134;2023-02-23T02:43:16;100800.63;;;3.77;95.67
10064;BME280;5071;52.360;13.134;2023-02-23T02:49:29;100791.78;;;3.70;95.86
10064;BME280;5071;52.360;13.134;2023-02-23T02:54:37;100797.03;;;3.70;95.94
10064;BME280;5071;52.360;13.134;2023-02-23T02:59:43;100800.41;;;3.63;96.29
10064;BME280;5071;52.360;13.134;2023-02-23T03:04:46;100795.97;;;3.59;96.54
10064;BME280;5071;52.360;13.134;2023-02-23T03:09:52;100792.41;;;3.55;96.88
10064;BME280;5071;52.360;13.134;2023-02-23T03:15:03;100785.34;;;3.51;97.05
10064;BME280;5071;52.360;13.134;2023-02-23T03:20:28;100784.34;;;3.44;97.17
10064;BME280;5071;52.360;13.134;2023-02-23T03:25:44;100786.00;;;3.39;97.74
10064;BME280;5071;52.360;13.134;2023-02-23T03:30:51;100782.38;;;3.31;97.88
10064;BME280;5071;52.360;13.134;2023-02-23T03:36:00;100777.84;;;3.24;98.24
10064;BME280;5071;52.360;13.134;2023-02-23T03:41:07;100780.44;;;3.22;98.74
10064;BME280;5071;52.360;13.134;2023-02-23T03:46:18;100775.09;;;3.16;98.57
10064;BME280;5071;52.360;13.134;2023-02-23T03:52:04;100766.22;;;3.09;99.14
10064;BME280;5071;52.360;13.134;2023-02-23T03:57:11;100774.06;;;3.06;99.53
10064;BME280;5071;52.360;13.134;2023-02-23T04:02:16;100768.81;;;3.06;99.84
10064;BME280;5071;52.360;13.134;2023-02-23T04:07:19;100767.84;;;3.01;100.00
10064;BME280;5071;52.360;13.134;2023-02-23T04:12:28;100760.66;;;2.91;100.00
10064;BME280;5071;52.360;13.134;2023-02-23T04:17:32;100756.16;;;2.84;100.00
10064;BME280;5071;52.360;13.134;2023-02-23T04:22:34;100752.63;;;2.83;100.00
10064;BME280;5071;52.360;13.134;2023-02-23T04:27:38;100754.31;;;2.80;100.00
10064;BME280;5071;52.360;13.134;2023-02-23T04:32:43;100760.44;;;2.80;100.00
10064;BME280;5071;52.360;13.134;2023-02-23T04:37:45;100757.69;;;2.72;100.00
10064;BME280;5071;52.360;13.134;2023-02-23T04:42:49;100748.03;;;2.71;100.00
10064;BME280;5071;52.360;13.134;2023-02-23T04:47:51;100753.28;;;2.71;100.00
10064;BME280;5071;52.360;13.134;2023-02-23T04:52:53;100755.91;;;2.71;100.00
10064;BME280;5071;52.360;13.134;2023-02-23T04:57:58;100741.03;;;2.72;100.00
10064;BME280;5071;52.360;13.134;2023-02-23T05:03:00;100743.56;;;2.66;100.00
10064;BME280;5071;52.360;13.134;2023-02-23T05:08:03;100740.72;;;2.55;100.00
10064;BME280;5071;52.360;13.134;2023-02-23T05:13:06;100737.06;;;2.47;100.00
10064;BME280;5071;52.360;13.134;2023-02-23T05:18:09;100744.84;;;2.44;100.00
10064;BME280;5071;52.360;13.134;2023-02-23T05:23:11;100743.91;;;2.39;100.00
10064;BME280;5071;52.360;13.134;2023-02-23T05:28:14;100743.75;;;2.32;100.00
10064;BME280;5071;52.360;13.134;2023-02-23T05:33:16;100741.91;;;2.28;100.00
10064;BME280;5071;52.360;13.134;2023-02-23T05:38:19;100741.78;;;2.22;100.00
10064;BME280;5071;52.360;13.134;2023-02-23T05:43:22;100746.94;;;2.19;100.00
10064;BME280;5071;52.360;13.134;2023-02-23T05:48:24;100749.41;;;2.11;100.00
10064;BME280;5071;52.360;13.134;2023-02-23T05:53:26;100760.75;;;2.10;100.00
10064;BME280;5071;52.360;13.134;2023-02-23T05:58:30;100762.47;;;2.10;100.00
10064;BME280;5071;52.360;13.134;2023-02-23T06:03:32;100758.00;;;2.06;100.00
10064;BME280;5071;52.360;13.134;2023-02-23T06:08:34;100769.34;;;2.05;100.00
10064;BME280;5071;52.360;13.134;2023-02-23T06:13:38;100767.66;;;2.07;100.00
10064;BME280;5071;52.360;13.134;2023-02-23T06:19:26;100774.84;;;2.17;100.00
10064;BME280;5071;52.360;13.134;2023-02-23T06:24:28;100768.81;;;2.20;100.00
10064;BME280;5071;52.360;13.134;2023-02-23T06:29:40;100769.72;;;2.23;100.00
10064;BME280;5071;52.360;13.134;2023-02-23T06:34:42;100780.38;;;2.29;100.00
10064;BME280;5071;52.360;13.134;2023-02-23T06:39:44;100792.66;;;2.33;100.00
10064;BME280;5071;52.360;13.134;2023-02-23T06:44:48;100780.69;;;2.45;100.00
10064;BME280;5071;52.360;13.134;2023-02-23T06:49:58;100788.88;;;2.60;100.00
10064;BME280;5071;52.360;13.134;2023-02-23T06:55:00;100787.22;;;2.65;100.00
10064;BME280;5071;52.360;13.134;2023-02-23T07:00:05;100788.34;;;2.77;100.00
10064;BME280;5071;52.360;13.134;2023-02-23T07:05:08;100787.56;;;2.82;100.00
10064;BME280;5071;52.360;13.134;2023-02-23T07:10:28;100790.41;;;2.93;100.00
10064;BME280;5071;52.360;13.134;2023-02-23T07:15:56;100790.59;;;3.04;100.00
10064;BME280;5071;52.360;13.134;2023-02-23T07:20:59;100799.66;;;3.20;100.00
10064;BME280;5071;52.360;13.134;2023-02-23T07:26:01;100795.44;;;3.29;99.92
10064;BME280;5071;52.360;13.134;2023-02-23T07:31:14;100799.09;;;3.39;99.38
10064;BME280;5071;52.360;13.134;2023-02-23T07:36:17;100803.72;;;3.53;98.58
10064;BME280;5071;52.360;13.134;2023-02-23T07:41:19;100789.81;;;3.58;98.08
10064;BME280;5071;52.360;13.134;2023-02-23T07:46:23;100794.31;;;3.65;97.18
10064;BME280;5071;52.360;13.134;2023-02-23T07:51:25;100792.84;;;3.83;97.06
10064;BME280;5071;52.360;13.134;2023-02-23T07:56:26;100789.41;;;3.85;96.60
10064;BME280;5071;52.360;13.134;2023-02-23T08:01:29;100798.38;;;4.00;96.48
10064;BME280;5071;52.360;13.134;2023-02-23T08:06:31;100794.06;;;4.05;94.89
10064;BME280;5071;52.360;13.134;2023-02-23T08:11:34;100790.72;;;4.15;95.10
10064;BME280;5071;52.360;13.134;2023-02-23T08:16:37;100792.56;;;4.21;94.63
10064;BME280;5071;52.360;13.134;2023-02-23T08:21:39;100785.81;;;4.40;94.42
10064;BME280;5071;52.360;13.134;2023-02-23T08:26:41;100791.34;;;4.61;93.74
10064;BME280;5071;52.360;13.134;2023-02-23T08:31:45;100798.59;;;4.81;92.46
10064;BME280;5071;52.360;13.134;2023-02-23T08:36:47;100779.41;;;4.91;92.00
10064;BME280;5071;52.360;13.134;2023-02-23T08:41:57;100781.31;;;5.04;91.65
10064;BME280;5071;52.360;13.134;2023-02-23T08:47:01;100793.63;;;5.09;91.43
10064;BME280;5071;52.360;13.134;2023-02-23T08:52:03;100792.78;;;5.10;90.93
10064;BME280;5071;52.360;13.134;2023-02-23T08:57:06;100791.72;;;4.95;91.98
10064;BME280;5071;52.360;13.134;2023-02-23T09:02:11;100795.47;;;5.13;92.54
10064;BME280;5071;52.360;13.134;2023-02-23T09:07:16;100799.13;;;5.30;92.02
10064;BME280;5071;52.360;13.134;2023-02-23T09:12:42;100794.06;;;5.52;90.71
10064;BME280;5071;52.360;13.134;2023-02-23T09:17:46;100791.50;;;5.61;90.85
10064;BME280;5071;52.360;13.134;2023-02-23T09:22:48;100801.41;;;5.88;89.66
10064;BME280;5071;52.360;13.134;2023-02-23T09:27:52;100806.81;;;5.99;89.16
10064;BME280;5071;52.360;13.134;2023-02-23T09:32:56;100802.72;;;6.52;87.46
10064;BME280;5071;52.360;13.134;2023-02-23T09:37:59;100803.69;;;6.65;86.78
10064;BME280;5071;52.360;13.134;2023-02-23T09:43:04;100790.56;;;6.92;85.84
10064;BME280;5071;52.360;13.134;2023-02-23T09:48:13;100801.22;;;7.26;85.23
10064;BME280;5071;52.360;13.134;2023-02-23T09:53:37;100800.44;;;7.73;83.56
10064;BME280;5071;52.360;13.134;2023-02-23T09:58:40;100804.81;;;8.01;81.96
10064;BME280;5071;52.360;13.134;2023-02-23T10:03:49;100796.81;;;8.42;81.99
10064;BME280;5071;52.360;13.134;2023-02-23T10:09:02;100807.31;;;8.70;80.48
10064;BME280;5071;52.360;13.134;2023-02-23T10:14:28;100797.38;;;9.21;78.70
10064;BME280;5071;52.360;13.134;2023-02-23T10:19:44;100790.72;;;9.87;76.27
10064;BME280;5071;52.360;13.134;2023-02-23T10:24:54;100785.47;;;10.67;74.05
10064;BME280;5071;52.360;13.134;2023-02-23T10:29:59;100778.94;;;11.57;69.90
10064;BME280;5071;52.360;13.134;2023-02-23T10:35:10;100780.16;;;11.92;69.19
10064;BME280;5071;52.360;13.134;2023-02-23T10:40:20;100779.19;;;12.44;66.97
10064;BME280;5071;52.360;13.134;2023-02-23T10:45:38;100780.06;;;13.29;64.29
10064;BME280;5071;52.360;13.134;2023-02-23T10:50:44;100776.69;;;13.22;64.09
10064;BME280;5071;52.360;13.134;2023-02-23T10:56:00;100778.25;;;12.92;64.07
10064;BME280;5071;52.360;13.134;2023-02-23T11:01:04;100788.38;;;11.75;68.61
10064;BME280;5071;52.360;13.134;2023-02-23T11:06:26;100769.66;;;11.26;71.12
10064;BME280;5071;52.360;13.134;2023-02-23T11:11:29;100773.66;;;10.95;73.56
10064;BME280;5071;52.360;13.134;2023-02-23T11:16:37;100782.25;;;10.44;75.99
10064;BME280;5071;52.360;13.134;2023-02-23T11:21:49;100766.59;;;10.15;77.54
10064;BME280;5071;52.360;13.134;2023-02-23T11:33:04;100751.72;;;9.98;78.88
10064;BME280;5071;52.360;13.134;2023-02-23T11:38:22;100749.72;;;10.20;78.14
10064;BME280;5071;52.360;13.134;2023-02-23T11:43:24;100747.56;;;10.58;78.16
10064;BME280;5071;52.360;13.134;2023-02-23T11:48:30;100740.97;;;10.89;76.32
10064;BME280;5071;52.360;13.134;2023-02-23T11:53:39;100737.53;;;10.81;76.67
10064;BME280;5071;52.360;13.134;2023-02-23T11:58:43;100740.31;;;11.34;76.73
10064;BME280;5071;52.360;13.134;2023-02-23T12:03:49;100730.00;;;11.68;73.78
10064;BME280;5071;52.360;13.134;2023-02-23T12:08:56;100731.59;;;12.29;72.00
10064;BME280;5071;52.360;13.134;2023-02-23T12:14:03;100723.91;;;12.99;69.55
10064;BME280;5071;52.360;13.134;2023-02-23T12:19:19;100726.19;;;13.16;68.30
10064;BME280;5071;52.360;13.134;2023-02-23T12:24:35;100729.03;;;12.24;71.03
10064;BME280;5071;52.360;13.134;2023-02-23T12:29:58;100723.66;;;12.25;71.60
10064;BME280;5071;52.360;13.134;2023-02-23T12:35:09;100719.72;;;12.01;73.13
10064;BME280;5071;52.360;13.134;2023-02-23T12:40:18;100717.81;;;12.06;75.00
10064;BME280;5071;52.360;13.134;2023-02-23T12:45:51;100708.81;;;12.14;73.94
10064;BME280;5071;52.360;13.134;2023-02-23T12:50:57;100710.47;;;12.19;73.02
10064;BME280;5071;52.360;13.134;2023-02-23T12:56:15;100702.25;;;12.33;73.04
10064;BME280;5071;52.360;13.134;2023-02-23T13:01:24;100713.34;;;12.09;74.55
10064;BME280;5071;52.360;13.134;2023-02-23T13:06:32;100707.66;;;11.79;76.05
10064;BME280;5071;52.360;13.134;2023-02-23T13:12:06;100704.44;;;11.60;77.71
10064;BME280;5071;52.360;13.134;2023-02-23T13:17:28;100700.66;;;11.20;79.45
10064;BME280;5071;52.360;13.134;2023-02-23T13:22:36;100694.47;;;11.20;80.07
10064;BME280;5071;52.360;13.134;2023-02-23T13:27:46;100690.25;;;11.06;80.75
10064;BME280;5071;52.360;13.134;2023-02-23T13:32:51;100688.59;;;10.98;81.28
10064;BME280;5071;52.360;13.134;2023-02-23T13:37:58;100686.78;;;11.01;81.54
10064;BME280;5071;52.360;13.134;2023-02-23T13:43:12;100691.38;;;10.88;82.20
10064;BME280;5071;52.360;13.134;2023-02-23T13:48:26;100700.63;;;10.63;85.19
10064;BME280;5071;52.360;13.134;2023-02-23T13:53:37;100704.38;;;10.43;86.75
10064;BME280;5071;52.360;13.134;2023-02-23T13:58:45;100708.72;;;10.52;85.50
10064;BME280;5071;52.360;13.134;2023-02-23T14:03:53;100707.25;;;10.25;86.98
10064;BME280;5071;52.360;13.134;2023-02-23T14:08:57;100700.53;;;9.91;88.69
10064;BME280;5071;52.360;13.134;2023-02-23T14:14:03;100707.56;;;9.96;88.87
10064;BME280;5071;52.360;13.134;2023-02-23T14:19:33;100713.19;;;9.63;90.15
10064;BME280;5071;52.360;13.134;2023-02-23T14:24:37;100717.56;;;9.66;90.23
10064;BME280;5071;52.360;13.134;2023-02-23T14:30:20;100716.97;;;9.33;90.48
10064;BME280;5071;52.360;13.134;2023-02-23T14:35:41;100722.28;;;9.28;90.27
10064;BME280;5071;52.360;13.134;2023-02-23T14:40:46;100721.53;;;9.09;90.28
10064;BME280;5071;52.360;13.134;2023-02-23T14:45:53;100718.06;;;9.00;91.34
10064;BME280;5071;52.360;13.134;2023-02-23T14:51:09;100724.25;;;9.00;91.38
10064;BME280;5071;52.360;13.134;2023-02-23T14:56:19;100711.97;;;8.85;92.08
10064;BME280;5071;52.360;13.134;2023-02-23T15:01:37;100722.59;;;8.79;93.56
10064;BME280;5071;52.360;13.134;2023-02-23T15:06:40;100718.13;;;8.92;93.66
10064;BME280;5071;52.360;13.134;2023-02-23T15:11:43;100705.81;;;8.86;94.00
10064;BME280;5071;52.360;13.134;2023-02-23T15:16:50;100705.78;;;8.89;94.65
10064;BME280;5071;52.360;13.134;2023-02-23T15:21:54;100704.03;;;8.84;95.77
10064;BME280;5071;52.360;13.134;2023-02-23T15:26:56;100701.34;;;8.94;95.78
10064;BME280;5071;52.360;13.134;2023-02-23T15:32:15;100695.22;;;8.88;95.69
10064;BME280;5071;52.360;13.134;2023-02-23T15:37:25;100697.91;;;8.75;96.90
10064;BME280;5071;52.360;13.134;2023-02-23T15:42:51;100701.53;;;8.64;97.69
10064;BME280;5071;52.360;13.134;2023-02-23T15:47:57;100699.66;;;8.81;97.39
10064;BME280;5071;52.360;13.134;2023-02-23T15:53:04;100696.22;;;8.64;98.15
10064;BME280;5071;52.360;13.134;2023-02-23T15:58:11;100700.63;;;8.68;97.92
10064;BME280;5071;52.360;13.134;2023-02-23T16:09:32;100688.34;;;8.56;98.78
10064;BME280;5071;52.360;13.134;2023-02-23T16:14:43;100681.28;;;8.52;99.25
10064;BME280;5071;52.360;13.134;2023-02-23T16:26:34;100677.78;;;8.47;100.00
10064;BME280;5071;52.360;13.134;2023-02-23T16:32:00;100676.88;;;8.46;100.00
10064;BME280;5071;52.360;13.134;2023-02-23T16:37:13;100683.97;;;8.41;100.00
10064;BME280;5071;52.360;13.134;2023-02-23T16:42:22;100678.66;;;8.40;100.00
10064;BME280;5071;52.360;13.134;2023-02-23T16:47:34;100680.44;;;8.39;100.00
10064;BME280;5071;52.360;13.134;2023-02-23T16:52:36;100670.78;;;8.33;100.00
10064;BME280;5071;52.360;13.134;2023-02-23T16:57:40;100676.94;;;8.34;100.00
10064;BME280;5071;52.360;13.134;2023-02-23T17:02:48;100669.03;;;8.28;100.00
10064;BME280;5071;52.360;13.134;2023-02-23T17:07:52;100668.13;;;8.26;100.00
10064;BME280;5071;52.360;13.134;2023-02-23T17:12:57;100685.78;;;8.30;100.00
10064;BME280;5071;52.360;13.134;2023-02-23T17:17:59;100682.22;;;8.31;100.00
10064;BME280;5071;52.360;13.134;2023-02-23T17:23:02;100680.47;;;8.30;100.00
10064;BME280;5071;52.360;13.134;2023-02-23T17:28:06;100684.00;;;8.29;100.00
10064;BME280;5071;52.360;13.134;2023-02-23T17:33:08;100678.72;;;8.27;100.00
10064;BME280;5071;52.360;13.134;2023-02-23T17:38:11;100682.25;;;8.25;100.00
10064;BME280;5071;52.360;13.134;2023-02-23T17:43:15;100675.22;;;8.21;100.00
10064;BME280;5071;52.360;13.134;2023-02-23T17:48:17;100679.66;;;8.18;100.00
10064;BME280;5071;52.360;13.134;2023-02-23T17:53:19;100675.22;;;8.17;100.00
10064;BME280;5071;52.360;13.134;2023-02-23T17:58:23;100669.94;;;8.16;100.00
10064;BME280;5071;52.360;13.134;2023-02-23T18:03:27;100654.97;;;8.13;100.00
10064;BME280;5071;52.360;13.134;2023-02-23T18:08:30;100668.16;;;8.20;100.00
10064;BME280;5071;52.360;13.134;2023-02-23T18:13:33;100670.81;;;8.23;100.00
10064;BME280;5071;52.360;13.134;2023-02-23T18:18:39;100673.41;;;8.26;100.00
10064;BME280;5071;52.360;13.134;2023-02-23T18:23:41;100668.16;;;8.24;100.00
10064;BME280;5071;52.360;13.134;2023-02-23T18:28:46;100665.50;;;8.26;100.00
10064;BME280;5071;52.360;13.134;2023-02-23T18:33:48;100663.72;;;8.31;100.00
10064;BME280;5071;52.360;13.134;2023-02-23T18:38:51;100666.34;;;8.29;100.00
10064;BME280;5071;52.360;13.134;2023-02-23T18:43:55;100659.31;;;8.27;100.00
10064;BME280;5071;52.360;13.134;2023-02-23T18:48:57;100661.13;;;8.18;100.00
10064;BME280;5071;52.360;13.134;2023-02-23T18:54:00;100659.38;;;8.17;100.00
10064;BME280;5071;52.360;13.134;2023-02-23T18:59:05;100664.66;;;8.21;100.00
10064;BME280;5071;52.360;13.134;2023-02-23T19:04:07;100662.91;;;8.16;100.00
10064;BME280;5071;52.360;13.134;2023-02-23T19:09:09;100661.13;;;8.18;100.00
10064;BME280;5071;52.360;13.134;2023-02-23T19:14:15;100653.22;;;8.14;100.00
10064;BME280;5071;52.360;13.134;2023-02-23T19:19:17;100653.22;;;8.14;100.00
10064;BME280;5071;52.360;13.134;2023-02-23T19:24:20;100649.69;;;8.09;100.00
10064;BME280;5071;52.360;13.134;2023-02-23T19:29:24;100653.25;;;8.09;100.00
10064;BME280;5071;52.360;13.134;2023-02-23T19:34:26;100650.56;;;8.18;100.00
10064;BME280;5071;52.360;13.134;2023-02-23T19:39:29;100647.03;;;8.13;100.00
10064;BME280;5071;52.360;13.134;2023-02-23T19:44:32;100648.78;;;8.14;100.00
10064;BME280;5071;52.360;13.134;2023-02-23T19:49:35;100658.50;;;8.18;100.00
10064;BME280;5071;52.360;13.134;2023-02-23T19:54:36;100652.34;;;8.13;100.00
10064;BME280;5071;52.360;13.134;2023-02-23T19:59:40;100658.56;;;8.00;100.00
10064;BME280;5071;52.360;13.134;2023-02-23T20:04:46;100657.69;;;7.92;100.00
10064;BME280;5071;52.360;13.134;2023-02-23T20:09:49;100663.88;;;7.94;100.00
10064;BME280;5071;52.360;13.134;2023-02-23T20:14:52;100661.25;;;7.74;100.00
10064;BME280;5071;52.360;13.134;2023-02-23T20:19:55;100667.44;;;7.64;100.00
10064;BME280;5071;52.360;13.134;2023-02-23T20:24:57;100676.28;;;7.56;100.00
10064;BME280;5071;52.360;13.134;2023-02-23T20:30:01;100670.97;;;7.50;100.00
10064;BME280;5071;52.360;13.134;2023-02-23T20:35:09;100670.09;;;7.47;100.00
10064;BME280;5071;52.360;13.134;2023-02-23T20:40:15;100663.94;;;7.31;100.00
10064;BME280;5071;52.360;13.134;2023-02-23T20:45:21;100663.97;;;7.32;100.00
10064;BME280;5071;52.360;13.134;2023-02-23T20:50:25;100663.94;;;7.18;100.00
10064;BME280;5071;52.360;13.134;2023-02-23T20:55:28;100662.19;;;7.10;100.00
10064;BME280;5071;52.360;13.134;2023-02-23T21:00:31;100654.28;;;7.08;100.00
10064;BME280;5071;52.360;13.134;2023-02-23T21:05:36;100656.00;;;7.17;100.00
10064;BME280;5071;52.360;13.134;2023-02-23T21:10:40;100654.25;;;7.07;100.00
10064;BME280;5071;52.360;13.134;2023-02-23T21:15:44;100656.91;;;6.99;100.00
10064;BME280;5071;52.360;13.134;2023-02-23T21:20:46;100648.13;;;6.98;100.00
10064;BME280;5071;52.360;13.134;2023-02-23T21:25:48;100644.56;;;6.89;100.00
10064;BME280;5071;52.360;13.134;2023-02-23T21:30:52;100636.66;;;6.90;100.00
10064;BME280;5071;52.360;13.134;2023-02-23T21:35:54;100630.53;;;6.85;100.00
10064;BME280;5071;52.360;13.134;2023-02-23T21:40:57;100622.56;;;6.73;100.00
10064;BME280;5071;52.360;13.134;2023-02-23T21:46:05;100625.19;;;6.65;100.00
10064;BME280;5071;52.360;13.134;2023-02-23T21:51:09;100627.84;;;6.64;100.00
10064;BME280;5071;52.360;13.134;2023-02-23T21:56:14;100624.31;;;6.61;100.00
10064;BME280;5071;52.360;13.134;2023-02-23T22:01:20;100626.94;;;6.58;100.00
10064;BME280;5071;52.360;13.134;2023-02-23T22:06:26;100625.19;;;6.64;100.00
10064;BME280;5071;52.360;13.134;2023-02-23T22:11:28;100621.69;;;6.65;100.00
10064;BME280;5071;52.360;13.134;2023-02-23T22:16:34;100605.88;;;6.57;100.00
10064;BME280;5071;52.360;13.134;2023-02-23T22:21:37;100602.31;;;6.55;100.00
10064;BME280;5071;52.360;13.134;2023-02-23T22:26:41;100598.81;;;6.56;100.00
10064;BME280;5071;52.360;13.134;2023-02-23T22:31:44;100590.00;;;6.52;100.00
10064;BME280;5071;52.360;13.134;2023-02-23T22:36:47;100599.69;;;6.53;100.00
10064;BME280;5071;52.360;13.134;2023-02-23T22:41:50;100597.06;;;6.58;100.00
10064;BME280;5071;52.360;13.134;2023-02-23T22:47:18;100590.00;;;6.49;100.00
10064;BME280;5071;52.360;13.134;2023-02-23T22:52:20;100582.09;;;6.49;100.00
10064;BME280;5071;52.360;13.134;2023-02-23T22:57:22;100575.06;;;6.47;100.00
10064;BME280;5071;52.360;13.134;2023-02-23T23:02:25;100579.47;;;6.51;100.00
10064;BME280;5071;52.360;13.134;2023-02-23T23:07:50;100577.69;;;6.47;100.00
10064;BME280;5071;52.360;13.134;2023-02-23T23:12:53;100573.31;;;6.50;100.00
10064;BME280;5071;52.360;13.134;2023-02-23T23:17:56;100574.19;;;6.45;100.00
10064;BME280;5071;52.360;13.134;2023-02-23T23:22:59;100571.56;;;6.48;100.00
10064;BME280;5071;52.360;13.134;2023-02-23T23:28:01;100570.66;;;6.49;100.00
10064;BME280;5071;52.360;13.134;2023-02-23T23:33:04;100554.84;;;6.49;100.00
10064;BME280;5071;52.360;13.134;2023-02-23T23:38:07;100551.31;;;6.43;100.00
10064;BME280;5071;52.360;13.134;2023-02-23T23:43:09;100555.69;;;6.40;100.00
10064;BME280;5071;52.360;13.134;2023-02-23T23:48:12;100546.94;;;6.47;100.00
10064;BME280;5071;52.360;13.134;2023-02-23T23:53:14;100545.19;;;6.48;100.00
10064;BME280;5071;52.360;13.134;2023-02-23T23:58:16;100543.38;;;6.34;100.00
